Time;durP1;ratioP1;P1;durP2;ratioP2;P2;SDS_P1;SDS_P2;PMS_P1;PMS_P2;Temp;Humidity;BMP_temperature;BMP_pressure;BME280_temperature;BME280_humidity;BME280_pressure;Samples;Min_cycle;Max_cycle;Signal;HPM_P1;HPM_P2
2022/08/08 00:01:42;;;;;;;;;;;;;;;;;;5036144;28;20057;-82
2022/08/08 00:04:33;;;;;;;1.50;1.13;;;;;;;;;;5036860;28;19915;-82
2022/08/08 00:07:20;;;;;;;1.05;1.00;;;;;;;;;;5028153;28;20023;-82
2022/08/08 00:10:12;;;;;;;2.88;1.10;;;;;;;;;;5037018;28;20498;-84
2022/08/08 00:12:46;;;;;;;3.80;1.17;;;;;;;;;;5055855;28;20029;-81
2022/08/08 00:15:20;;;;;;;1.95;1.27;;;;;;;;;;5056647;28;20091;-82
2022/08/08 00:17:54;;;;;;;1.52;1.15;;;;;;;;;;5038396;28;20466;-83
2022/08/08 00:20:34;;;;;;;2.15;1.08;;;;;;;;;;5056701;28;20017;-83
2022/08/08 00:23:06;;;;;;;2.58;0.85;;;;;;;;;;5056179;28;20037;-83
2022/08/08 00:25:46;;;;;;;1.42;0.98;;;;;;;;;;5050043;28;20025;-82
2022/08/08 00:28:14;;;;;;;0.98;0.98;;;;;;;;;;5035785;28;20024;-83
2022/08/08 00:30:50;;;;;;;2.33;1.08;;;;;;;;;;5036550;28;20049;-84
2022/08/08 00:33:20;;;;;;;0.95;0.95;;;;;;;;;;5038247;28;20108;-81
2022/08/08 00:35:48;;;;;;;1.75;1.08;;;;;;;;;;5036999;28;20053;-82
2022/08/08 00:38:22;;;;;;;0.75;0.75;;;;;;;;;;5035793;28;20030;-83
2022/08/08 00:41:16;;;;;;;3.95;0.98;;;;;;;;;;5018989;28;20025;-81
2022/08/08 00:44:02;;;;;;;3.15;1.10;;;;;;;;;;5036498;28;20096;-83
2022/08/08 00:46:58;;;;;;;1.00;1.00;;;;;;;;;;5030855;28;20053;-82
2022/08/08 00:49:32;;;;;;;1.48;0.65;;;;;;;;;;5055435;28;20099;-83
2022/08/08 00:52:28;;;;;;;0.98;0.90;;;;;;;;;;5027631;28;20100;-83
2022/08/08 00:55:23;;;;;;;1.00;1.00;;;;;;;;;;5036165;28;20433;-82
2022/08/08 00:58:32;;;;;;;2.55;1.00;;;;;;;;;;5017838;28;20395;-82
2022/08/08 01:01:13;;;;;;;2.63;1.05;;;;;;;;;;5036064;28;20018;-82
2022/08/08 01:04:27;;;;;;;1.20;0.98;;;;;;;;;;5017679;28;20024;-84
2022/08/08 01:07:14;;;;;;;4.95;1.10;;;;;;;;;;5026838;28;20021;-83
2022/08/08 01:09:58;;;;;;;1.48;1.30;;;;;;;;;;5018434;28;20013;-83
2022/08/08 01:12:48;;;;;;;2.58;1.20;;;;;;;;;;5052692;28;20032;-82
2022/08/08 01:15:16;;;;;;;3.40;1.20;;;;;;;;;;5055733;28;20033;-81
2022/08/08 01:18:08;;;;;;;1.25;0.90;;;;;;;;;;5054938;28;20121;-84
2022/08/08 01:21:03;;;;;;;0.57;0.57;;;;;;;;;;5055769;28;20589;-84
2022/08/08 01:24:14;;;;;;;0.80;0.80;;;;;;;;;;5055550;28;20028;-84
2022/08/08 01:26:58;;;;;;;1.90;1.00;;;;;;;;;;5038897;28;20026;-82
2022/08/08 01:29:38;;;;;;;0.82;0.82;;;;;;;;;;5035810;28;20861;-83
2022/08/08 01:32:34;;;;;;;3.45;0.90;;;;;;;;;;5034440;28;20472;-84
2022/08/08 01:35:37;;;;;;;3.38;1.17;;;;;;;;;;5035648;28;20430;-84
2022/08/08 01:38:33;;;;;;;1.20;0.90;;;;;;;;;;5029828;28;20408;-83
2022/08/08 01:41:01;;;;;;;1.60;1.10;;;;;;;;;;5037930;28;20336;-84
2022/08/08 01:43:46;;;;;;;1.60;0.93;;;;;;;;;;5037566;28;20388;-84
2022/08/08 01:46:24;;;;;;;1.67;1.08;;;;;;;;;;5037085;28;20492;-84
2022/08/08 01:49:07;;;;;;;1.20;1.10;;;;;;;;;;5018687;28;20044;-84
2022/08/08 01:51:58;;;;;;;3.47;1.17;;;;;;;;;;5035923;28;20094;-84
2022/08/08 01:54:50;;;;;;;1.25;0.98;;;;;;;;;;5035692;28;20025;-84
2022/08/08 01:57:41;;;;;;;2.22;1.02;;;;;;;;;;5039564;28;20379;-84
2022/08/08 02:00:18;;;;;;;4.25;1.27;;;;;;;;;;5029469;28;20052;-83
2022/08/08 02:03:07;;;;;;;3.35;1.30;;;;;;;;;;5020143;28;20490;-84
2022/08/08 02:05:51;;;;;;;1.13;0.90;;;;;;;;;;5039263;28;20033;-83
2022/08/08 02:08:16;;;;;;;1.60;1.13;;;;;;;;;;5038409;28;20575;-86
2022/08/08 02:11:22;;;;;;;1.48;1.10;;;;;;;;;;5038703;28;20057;-82
2022/08/08 02:13:50;;;;;;;0.90;0.90;;;;;;;;;;5035842;28;20033;-84
2022/08/08 02:16:18;;;;;;;0.77;0.77;;;;;;;;;;5020844;28;20117;-85
2022/08/08 02:19:14;;;;;;;1.30;1.20;;;;;;;;;;5019936;28;20033;-85
2022/08/08 02:22:30;;;;;;;1.17;0.77;;;;;;;;;;5039562;28;20037;-85
2022/08/08 02:25:22;;;;;;;0.90;0.90;;;;;;;;;;5049093;28;20021;-84
2022/08/08 02:28:04;;;;;;;1.50;0.90;;;;;;;;;;5036600;28;20079;-85
2022/08/08 02:30:48;;;;;;;1.38;0.98;;;;;;;;;;5041272;28;20093;-85
2022/08/08 02:33:32;;;;;;;1.05;1.00;;;;;;;;;;5043357;28;20017;-84
2022/08/08 02:36:36;;;;;;;2.28;1.00;;;;;;;;;;5044189;28;20081;-85
2022/08/08 02:39:23;;;;;;;1.15;1.13;;;;;;;;;;5024055;28;20064;-84
2022/08/08 02:42:29;;;;;;;2.45;1.08;;;;;;;;;;5023508;28;20108;-84
2022/08/08 02:45:12;;;;;;;1.33;0.88;;;;;;;;;;5023469;28;20017;-84
2022/08/08 02:47:59;;;;;;;;;;;;;;;;;;5023685;28;20033;-84
2022/08/08 02:50:55;;;;;;;1.17;1.17;;;;;;;;;;5021851;28;19944;-84
2022/08/08 02:53:30;;;;;;;2.78;1.65;;;;;;;;;;5019584;28;20499;-82
2022/08/08 02:56:40;;;;;;;0.93;0.93;;;;;;;;;;5028671;28;20052;-83
2022/08/08 02:59:25;;;;;;;1.00;1.00;;;;;;;;;;5040020;28;20024;-82
2022/08/08 03:02:21;;;;;;;1.90;0.93;;;;;;;;;;5021494;28;20030;-82
2022/08/08 03:04:55;;;;;;;1.10;1.00;;;;;;;;;;5036086;28;20113;-80
2022/08/08 03:07:23;;;;;;;2.22;1.20;;;;;;;;;;5037341;28;20360;-84
2022/08/08 03:10:23;;;;;;;1.48;1.08;;;;;;;;;;5021778;28;20064;-84
2022/08/08 03:13:19;;;;;;;1.20;1.10;;;;;;;;;;5059775;28;20115;-82
2022/08/08 03:16:05;;;;;;;1.33;1.10;;;;;;;;;;5043854;28;20076;-82
2022/08/08 03:18:37;;;;;;;2.00;1.15;;;;;;;;;;5060083;28;20021;-83
2022/08/08 03:21:02;;;;;;;3.92;1.30;;;;;;;;;;5028330;28;20021;-81
2022/08/08 03:23:29;;;;;;;1.38;1.20;;;;;;;;;;5021521;28;20039;-84
2022/08/08 03:25:56;;;;;;;3.95;1.25;;;;;;;;;;5039640;28;20025;-82
2022/08/08 03:28:31;;;;;;;2.95;1.20;;;;;;;;;;5037028;28;20017;-82
2022/08/08 03:30:57;;;;;;;4.00;1.30;;;;;;;;;;5022706;28;20029;-82
2022/08/08 03:33:24;;;;;;;1.00;1.00;;;;;;;;;;5021959;28;20021;-81
2022/08/08 03:35:50;;;;;;;4.90;1.42;;;;;;;;;;5039725;28;20024;-82
2022/08/08 03:38:20;;;;;;;2.10;1.17;;;;;;;;;;5019294;28;20052;-82
2022/08/08 03:40:50;;;;;;;3.35;1.30;;;;;;;;;;5037343;28;20036;-82
2022/08/08 03:43:16;;;;;;;1.88;1.20;;;;;;;;;;5019046;28;20049;-81
2022/08/08 03:45:41;;;;;;;2.05;1.23;;;;;;;;;;5038219;28;20037;-83
2022/08/08 03:48:08;;;;;;;3.83;1.20;;;;;;;;;;5037572;28;20075;-83
2022/08/08 03:50:44;;;;;;;1.95;1.33;;;;;;;;;;5038128;28;20060;-83
2022/08/08 03:53:16;;;;;;;1.40;1.20;;;;;;;;;;5040900;28;20025;-82
2022/08/08 03:55:43;;;;;;;4.13;1.00;;;;;;;;;;5040346;28;20463;-83
2022/08/08 03:58:15;;;;;;;1.45;1.20;;;;;;;;;;5022416;28;20391;-82
2022/08/08 04:00:41;;;;;;;1.90;1.13;;;;;;;;;;5040221;28;20029;-82
2022/08/08 04:03:07;;;;;;;3.17;1.20;;;;;;;;;;5040418;28;20056;-82
2022/08/08 04:05:35;;;;;;;1.80;1.15;;;;;;;;;;5040758;28;20029;-82
2022/08/08 04:08:02;;;;;;;1.50;1.15;;;;;;;;;;5038909;28;20510;-82
2022/08/08 04:10:29;;;;;;;1.00;0.90;;;;;;;;;;5040621;28;20025;-83
2022/08/08 04:12:55;;;;;;;1.63;1.00;;;;;;;;;;5041068;28;20021;-82
2022/08/08 04:15:21;;;;;;;1.27;1.17;;;;;;;;;;5041337;28;20487;-81
2022/08/08 04:17:46;;;;;;;2.25;0.90;;;;;;;;;;5040188;28;20127;-82
2022/08/08 04:20:12;;;;;;;2.20;1.10;;;;;;;;;;5041842;28;20053;-82
2022/08/08 04:22:37;;;;;;;3.35;1.27;;;;;;;;;;5040982;28;20021;-82
2022/08/08 04:25:05;;;;;;;1.98;0.98;;;;;;;;;;5023213;28;20105;-81
2022/08/08 04:27:30;;;;;;;3.30;1.35;;;;;;;;;;5038924;28;20483;-82
2022/08/08 04:29:56;;;;;;;1.10;1.00;;;;;;;;;;5041177;28;20022;-82
2022/08/08 04:32:21;;;;;;;2.75;1.15;;;;;;;;;;5040521;28;20084;-82
2022/08/08 04:34:47;;;;;;;1.20;1.20;;;;;;;;;;5047559;28;20045;-82
2022/08/08 04:37:12;;;;;;;2.20;1.10;;;;;;;;;;5040083;28;20108;-81
2022/08/08 04:39:39;;;;;;;3.47;1.10;;;;;;;;;;5041118;28;20029;-82
2022/08/08 04:42:04;;;;;;;2.47;1.00;;;;;;;;;;5041079;28;20025;-83
2022/08/08 04:44:30;;;;;;;1.77;0.95;;;;;;;;;;5023869;28;20067;-83
2022/08/08 04:46:55;;;;;;;1.50;1.40;;;;;;;;;;5040373;28;20025;-82
2022/08/08 04:49:20;;;;;;;8.90;1.52;;;;;;;;;;5041008;28;20028;-81
2022/08/08 04:51:46;;;;;;;1.27;1.17;;;;;;;;;;5017515;28;20064;-81
2022/08/08 04:54:11;;;;;;;2.47;1.35;;;;;;;;;;5015752;28;20021;-81
2022/08/08 04:56:37;;;;;;;1.30;1.20;;;;;;;;;;5034334;28;20064;-81
2022/08/08 04:59:03;;;;;;;2.67;1.30;;;;;;;;;;5033836;28;20379;-81
2022/08/08 05:01:28;;;;;;;1.17;1.10;;;;;;;;;;5041054;28;20029;-81
2022/08/08 05:03:53;;;;;;;2.08;1.33;;;;;;;;;;5038858;28;20017;-81
2022/08/08 05:06:19;;;;;;;4.47;1.40;;;;;;;;;;5058335;28;20328;-81
2022/08/08 05:08:45;;;;;;;1.10;1.10;;;;;;;;;;5055809;28;20117;-80
2022/08/08 05:11:12;;;;;;;1.40;1.17;;;;;;;;;;5045265;28;20025;-80
2022/08/08 05:13:39;;;;;;;1.10;0.95;;;;;;;;;;5076717;28;20019;-81
2022/08/08 05:16:05;;;;;;;3.55;1.77;;;;;;;;;;5076975;28;20021;-81
2022/08/08 05:18:32;;;;;;;1.73;1.20;;;;;;;;;;5076310;28;20029;-82
2022/08/08 05:21:00;;;;;;;1.65;1.42;;;;;;;;;;5076890;28;20015;-81
2022/08/08 05:23:25;;;;;;;2.08;1.20;;;;;;;;;;5059401;28;20116;-81
2022/08/08 05:25:51;;;;;;;1.58;1.25;;;;;;;;;;5076369;28;20024;-81
2022/08/08 05:28:17;;;;;;;2.40;1.30;;;;;;;;;;5041587;28;20080;-82
2022/08/08 05:30:43;;;;;;;3.00;1.20;;;;;;;;;;5018529;28;20391;-81
2022/08/08 05:33:08;;;;;;;4.30;1.48;;;;;;;;;;5036106;28;20013;-82
2022/08/08 05:35:34;;;;;;;1.85;1.35;;;;;;;;;;5018659;28;20025;-82
2022/08/08 05:38:03;;;;;;;7.63;1.70;;;;;;;;;;5035590;28;20048;-82
2022/08/08 05:40:30;;;;;;;2.22;1.50;;;;;;;;;;5036116;28;20041;-81
2022/08/08 05:43:03;;;;;;;2.50;1.95;;;;;;;;;;5035737;28;20029;-82
2022/08/08 05:45:34;;;;;;;2.90;1.83;;;;;;;;;;5036442;28;20049;-82
2022/08/08 05:48:00;;;;;;;2.00;1.70;;;;;;;;;;5017843;28;20021;-82
2022/08/08 05:50:28;;;;;;;4.15;1.70;;;;;;;;;;5034615;28;20029;-82
2022/08/08 05:52:54;;;;;;;2.78;1.80;;;;;;;;;;5034615;28;20021;-82
2022/08/08 05:55:20;;;;;;;6.72;1.75;;;;;;;;;;5017700;28;20021;-82
2022/08/08 05:57:49;;;;;;;4.00;1.60;;;;;;;;;;5033226;28;20037;-82
2022/08/08 06:00:14;;;;;;;2.58;1.95;;;;;;;;;;5034691;28;20017;-82
2022/08/08 06:05:31;;;;;;;2.15;1.73;;;;;;;;;;5034618;28;20053;-82
2022/08/08 06:07:57;;;;;;;2.67;1.70;;;;;;;;;;5016178;28;20460;-81
2022/08/08 06:10:24;;;;;;;4.80;1.60;;;;;;;;;;5035739;28;20372;-82
2022/08/08 06:12:50;;;;;;;4.10;1.65;;;;;;;;;;5055340;28;20021;-82
2022/08/08 06:15:15;;;;;;;3.50;1.70;;;;;;;;;;5055196;28;20228;-82
2022/08/08 06:17:41;;;;;;;2.13;1.90;;;;;;;;;;5053469;28;20032;-82
2022/08/08 06:20:09;;;;;;;2.17;1.63;;;;;;;;;;5037213;28;20024;-82
2022/08/08 06:22:34;;;;;;;2.03;1.40;;;;;;;;;;5054788;28;20075;-82
2022/08/08 06:25:01;;;;;;;5.15;1.77;;;;;;;;;;5037497;28;20021;-82
2022/08/08 06:27:47;;;;;;;3.50;1.40;;;;;;;;;;5023660;28;20030;-82
2022/08/08 06:30:14;;;;;;;6.88;1.60;;;;;;;;;;5040197;28;20384;-82
2022/08/08 06:32:42;;;;;;;3.25;1.63;;;;;;;;;;5017288;28;20022;-83
2022/08/08 06:35:11;;;;;;;4.50;1.70;;;;;;;;;;5035217;28;20025;-82
2022/08/08 06:37:42;;;;;;;2.65;1.63;;;;;;;;;;5034469;28;20087;-82
2022/08/08 06:40:10;;;;;;;4.05;1.52;;;;;;;;;;5035051;28;20541;-82
2022/08/08 06:42:37;;;;;;;2.70;1.73;;;;;;;;;;5034154;28;20365;-80
2022/08/08 06:45:04;;;;;;;3.38;2.15;;;;;;;;;;5035222;28;20025;-82
2022/08/08 06:47:30;;;;;;;5.20;1.77;;;;;;;;;;5034604;28;20029;-82
2022/08/08 06:49:56;;;;;;;1.63;1.50;;;;;;;;;;5017635;28;20395;-81
2022/08/08 06:52:22;;;;;;;5.45;2.00;;;;;;;;;;5035427;28;20021;-82
2022/08/08 06:54:48;;;;;;;2.90;1.70;;;;;;;;;;5035670;28;20117;-82
2022/08/08 06:57:14;;;;;;;2.63;1.60;;;;;;;;;;5034555;28;20059;-82
2022/08/08 06:59:39;;;;;;;1.98;1.50;;;;;;;;;;5034154;28;20021;-82
2022/08/08 07:02:05;;;;;;;4.65;1.83;;;;;;;;;;5016124;28;20029;-82
2022/08/08 07:04:42;;;;;;;3.05;1.50;;;;;;;;;;5034210;28;20391;-81
2022/08/08 07:07:10;;;;;;;4.18;1.90;;;;;;;;;;5034128;28;20017;-82
2022/08/08 07:09:40;;;;;;;4.45;1.67;;;;;;;;;;5035059;28;20036;-82
2022/08/08 07:12:07;;;;;;;3.58;2.15;;;;;;;;;;5029968;28;20029;-82
2022/08/08 07:14:57;;;;;;;4.50;1.80;;;;;;;;;;5037005;28;20021;-82
2022/08/08 07:17:25;;;;;;;3.22;1.73;;;;;;;;;;5043584;28;20028;-82
2022/08/08 07:19:59;;;;;;;2.45;1.70;;;;;;;;;;5037948;28;20033;-82
2022/08/08 07:22:55;;;;;;;3.72;1.50;;;;;;;;;;5037136;28;20025;-81
2022/08/08 07:25:24;;;;;;;2.38;1.60;;;;;;;;;;5038035;28;20013;-82
2022/08/08 07:27:54;;;;;;;4.00;1.90;;;;;;;;;;5036328;28;20075;-82
2022/08/08 07:30:19;;;;;;;5.65;1.70;;;;;;;;;;5038288;28;20037;-82
2022/08/08 07:32:46;;;;;;;2.53;1.80;;;;;;;;;;5036788;28;20029;-82
2022/08/08 07:35:12;;;;;;;2.42;1.77;;;;;;;;;;5036668;28;20025;-82
2022/08/08 07:37:38;;;;;;;3.40;1.70;;;;;;;;;;5035918;28;20025;-82
2022/08/08 07:40:06;;;;;;;3.53;1.75;;;;;;;;;;5019717;28;20087;-82
2022/08/08 07:42:31;;;;;;;3.05;1.75;;;;;;;;;;5037851;28;20087;-82
2022/08/08 07:44:56;;;;;;;2.55;1.83;;;;;;;;;;5037909;28;20458;-82
2022/08/08 07:47:22;;;;;;;3.67;2.05;;;;;;;;;;5037522;28;20036;-81
2022/08/08 07:49:47;;;;;;;3.38;2.00;;;;;;;;;;5019245;28;20021;-81
2022/08/08 07:52:15;;;;;;;2.05;1.60;;;;;;;;;;5037751;28;20051;-82
2022/08/08 07:54:53;;;;;;;3.88;1.63;;;;;;;;;;5037528;28;20026;-81
2022/08/08 07:57:33;;;;;;;2.13;1.50;;;;;;;;;;5021276;28;20523;-81
2022/08/08 08:00:06;;;;;;;2.17;1.47;;;;;;;;;;5030019;28;20396;-82
2022/08/08 08:02:39;;;;;;;3.90;1.83;;;;;;;;;;5035917;28;20029;-84
2022/08/08 08:05:28;;;;;;;3.45;1.90;;;;;;;;;;5037432;28;20014;-83
2022/08/08 08:08:06;;;;;;;3.08;1.70;;;;;;;;;;5028761;28;20095;-83
2022/08/08 08:10:33;;;;;;;2.58;1.63;;;;;;;;;;5037935;28;20083;-83
2022/08/08 08:13:25;;;;;;;3.20;1.90;;;;;;;;;;5056552;28;20021;-83
2022/08/08 08:16:07;;;;;;;2.17;1.48;;;;;;;;;;5057799;28;20117;-83
2022/08/08 08:18:36;;;;;;;;;;;;;;;;;;5036789;28;20085;-83
2022/08/08 08:21:02;;;;;;;1.63;1.40;;;;;;;;;;5037457;28;20357;-83
2022/08/08 08:23:28;;;;;;;2.28;1.70;;;;;;;;;;5037104;28;20057;-83
2022/08/08 08:25:53;;;;;;;4.13;1.52;;;;;;;;;;5037763;28;20025;-83
2022/08/08 08:28:21;;;;;;;2.70;1.70;;;;;;;;;;5034860;28;20121;-83
2022/08/08 08:30:46;;;;;;;2.60;1.52;;;;;;;;;;5036917;28;20126;-82
2022/08/08 08:33:12;;;;;;;3.92;1.90;;;;;;;;;;5036366;28;20476;-83
2022/08/08 08:35:37;;;;;;;1.60;1.50;;;;;;;;;;5046210;28;20112;-83
2022/08/08 08:38:03;;;;;;;3.33;1.42;;;;;;;;;;5037502;28;20558;-82
2022/08/08 08:40:30;;;;;;;3.05;1.52;;;;;;;;;;5022445;28;20029;-82
2022/08/08 08:42:55;;;;;;;5.13;1.73;;;;;;;;;;5039967;28;20025;-83
2022/08/08 08:45:21;;;;;;;1.45;1.35;;;;;;;;;;5040179;28;20387;-83
2022/08/08 08:47:48;;;;;;;2.13;1.67;;;;;;;;;;5038965;28;20048;-83
2022/08/08 08:50:14;;;;;;;1.60;1.50;;;;;;;;;;5039609;28;20036;-82
2022/08/08 08:52:42;;;;;;;2.78;1.65;;;;;;;;;;5037837;28;20116;-83
2022/08/08 08:55:12;;;;;;;3.20;1.60;;;;;;;;;;5039995;28;20052;-82
2022/08/08 08:57:41;;;;;;;1.42;1.33;;;;;;;;;;5020091;28;20032;-83
2022/08/08 09:00:07;;;;;;;2.83;1.50;;;;;;;;;;5037619;28;20032;-83
2022/08/08 09:02:35;;;;;;;1.98;1.40;;;;;;;;;;5038962;28;20021;-83
2022/08/08 09:05:04;;;;;;;1.95;1.50;;;;;;;;;;5037143;28;20051;-82
2022/08/08 09:07:33;;;;;;;3.80;2.00;;;;;;;;;;5036516;28;20033;-83
2022/08/08 09:09:59;;;;;;;1.50;1.40;;;;;;;;;;5037185;28;20017;-83
2022/08/08 09:12:25;;;;;;;1.95;1.40;;;;;;;;;;5037415;28;20017;-83
2022/08/08 09:14:54;;;;;;;1.90;1.40;;;;;;;;;;5037210;28;20086;-83
2022/08/08 09:17:20;;;;;;;2.95;1.02;;;;;;;;;;5036599;28;20049;-83
2022/08/08 09:19:48;;;;;;;1.63;1.50;;;;;;;;;;5037949;28;20045;-83
2022/08/08 09:22:14;;;;;;;1.65;1.55;;;;;;;;;;5037740;28;20479;-82
2022/08/08 09:24:41;;;;;;;1.95;1.67;;;;;;;;;;5038600;28;20080;-82
2022/08/08 09:27:11;;;;;;;1.42;1.33;;;;;;;;;;5034743;28;20049;-82
2022/08/08 09:29:50;;;;;;;2.70;1.17;;;;;;;;;;5037633;28;20059;-83
2022/08/08 09:32:36;;;;;;;3.30;1.50;;;;;;;;;;5038401;28;20023;-83
2022/08/08 09:35:04;;;;;;;1.42;1.30;;;;;;;;;;5032929;28;20021;-82
2022/08/08 09:37:35;;;;;;;1.33;1.25;;;;;;;;;;5020634;28;20029;-82
2022/08/08 09:40:05;;;;;;;1.40;1.30;;;;;;;;;;5019567;28;20017;-82
2022/08/08 09:42:39;;;;;;;1.63;1.10;;;;;;;;;;5037532;28;20098;-83
2022/08/08 09:45:31;;;;;;;1.60;1.20;;;;;;;;;;5037712;28;20022;-83
2022/08/08 09:48:01;;;;;;;1.92;1.50;;;;;;;;;;5020160;28;20029;-82
2022/08/08 09:50:29;;;;;;;2.35;1.27;;;;;;;;;;5039238;28;20026;-83
2022/08/08 09:52:56;;;;;;;1.75;1.50;;;;;;;;;;5039808;28;20026;-82
2022/08/08 09:55:24;;;;;;;3.28;1.25;;;;;;;;;;5036746;28;20462;-82
2022/08/08 09:57:57;;;;;;;1.50;1.40;;;;;;;;;;5038209;28;20026;-82
2022/08/08 10:00:24;;;;;;;3.15;1.48;;;;;;;;;;5040268;28;20067;-82
2022/08/08 10:02:51;;;;;;;3.40;1.52;;;;;;;;;;5022754;28;20017;-83
2022/08/08 10:05:20;;;;;;;3.25;1.30;;;;;;;;;;5041959;28;20108;-82
2022/08/08 10:07:51;;;;;;;1.30;1.20;;;;;;;;;;5024595;28;20025;-82
2022/08/08 10:10:24;;;;;;;1.52;1.42;;;;;;;;;;5047257;28;20033;-81
2022/08/08 10:12:50;;;;;;;2.03;1.90;;;;;;;;;;5067403;28;20083;-81
2022/08/08 10:15:16;;;;;;;2.95;2.30;;;;;;;;;;5049847;28;20025;-82
2022/08/08 10:17:46;;;;;;;5.32;1.65;;;;;;;;;;5066628;28;20041;-81
2022/08/08 10:20:12;;;;;;;1.23;1.20;;;;;;;;;;5066490;28;20028;-81
2022/08/08 10:22:46;;;;;;;2.63;1.50;;;;;;;;;;5067368;28;20029;-82
2022/08/08 10:25:17;;;;;;;3.03;2.67;;;;;;;;;;5050271;28;20021;-81
2022/08/08 10:27:42;;;;;;;;;;;;;;;;;;5059023;28;20033;-81
2022/08/08 10:30:09;;;;;;;1.65;1.42;;;;;;;;;;5044252;28;19990;-83
2022/08/08 10:32:41;;;;;;;3.30;1.45;;;;;;;;;;5044262;28;20025;-82
2022/08/08 10:35:16;;;;;;;1.65;1.55;;;;;;;;;;5037068;28;20028;-82
2022/08/08 10:38:02;;;;;;;1.23;1.20;;;;;;;;;;5036134;28;20045;-83
2022/08/08 10:40:30;;;;;;;3.60;1.60;;;;;;;;;;5035951;28;20156;-82
2022/08/08 10:43:00;;;;;;;1.42;1.33;;;;;;;;;;5035861;28;20033;-82
2022/08/08 10:45:26;;;;;;;1.50;1.40;;;;;;;;;;5037211;28;20049;-83
2022/08/08 10:47:54;;;;;;;2.35;1.55;;;;;;;;;;5033968;28;20028;-82
2022/08/08 10:50:20;;;;;;;3.55;1.92;;;;;;;;;;5036243;28;20037;-83
2022/08/08 10:52:46;;;;;;;2.08;1.40;;;;;;;;;;5020832;28;20021;-83
2022/08/08 10:55:19;;;;;;;1.67;1.45;;;;;;;;;;5038790;28;20033;-84
2022/08/08 10:57:49;;;;;;;3.47;1.50;;;;;;;;;;5037811;28;20075;-82
2022/08/08 11:00:23;;;;;;;1.38;1.27;;;;;;;;;;5019511;28;20033;-80
2022/08/08 11:02:49;;;;;;;1.40;1.30;;;;;;;;;;5022686;28;20025;-83
2022/08/08 11:05:15;;;;;;;2.95;1.23;;;;;;;;;;5023210;28;20017;-83
2022/08/08 11:07:46;;;;;;;1.67;1.42;;;;;;;;;;5040658;28;20017;-83
2022/08/08 11:10:15;;;;;;;1.98;1.30;;;;;;;;;;5040520;28;20447;-84
2022/08/08 11:12:55;;;;;;;2.03;1.35;;;;;;;;;;5058510;28;20029;-84
2022/08/08 11:15:23;;;;;;;1.52;1.10;;;;;;;;;;5043020;28;20483;-83
2022/08/08 11:17:50;;;;;;;1.00;1.00;;;;;;;;;;5059674;28;20028;-83
2022/08/08 11:20:18;;;;;;;1.00;1.00;;;;;;;;;;5042765;28;20044;-84
2022/08/08 11:22:48;;;;;;;1.20;1.17;;;;;;;;;;5060663;28;20098;-84
2022/08/08 11:25:14;;;;;;;1.88;1.08;;;;;;;;;;5060289;28;20032;-83
2022/08/08 11:27:41;;;;;;;1.20;1.10;;;;;;;;;;5052647;28;20029;-84
2022/08/08 11:30:08;;;;;;;2.92;1.13;;;;;;;;;;5040343;28;20037;-83
2022/08/08 11:32:39;;;;;;;1.17;0.95;;;;;;;;;;5040435;28;20075;-83
2022/08/08 11:35:12;;;;;;;0.93;0.93;;;;;;;;;;5038915;28;20030;-83
2022/08/08 11:37:41;;;;;;;1.33;1.00;;;;;;;;;;5038013;28;20029;-83
2022/08/08 11:40:09;;;;;;;1.05;1.00;;;;;;;;;;5021785;28;20053;-83
2022/08/08 11:42:35;;;;;;;1.58;1.20;;;;;;;;;;5039300;28;20101;-84
2022/08/08 11:45:03;;;;;;;1.80;1.05;;;;;;;;;;5021439;28;20021;-84
2022/08/08 11:47:29;;;;;;;2.00;1.30;;;;;;;;;;5037085;28;20044;-83
2022/08/08 11:49:57;;;;;;;1.50;1.40;;;;;;;;;;5039869;28;20029;-83
2022/08/08 11:52:25;;;;;;;2.75;1.15;;;;;;;;;;5041237;28;20029;-84
2022/08/08 11:54:51;;;;;;;1.50;1.25;;;;;;;;;;5042936;28;20013;-84
2022/08/08 11:57:16;;;;;;;1.60;1.20;;;;;;;;;;5043513;28;20032;-83
2022/08/08 11:59:51;;;;;;;3.45;1.13;;;;;;;;;;5041886;28;20064;-84
2022/08/08 12:02:16;;;;;;;5.18;1.20;;;;;;;;;;5047091;28;20255;-83
2022/08/08 12:04:42;;;;;;;3.30;1.25;;;;;;;;;;5049000;28;20053;-83
2022/08/08 12:07:07;;;;;;;1.20;1.10;;;;;;;;;;5045340;28;20017;-84
2022/08/08 12:09:34;;;;;;;1.55;1.42;;;;;;;;;;5043647;28;20032;-83
2022/08/08 12:12:00;;;;;;;0.93;0.93;;;;;;;;;;5055312;28;20075;-84
2022/08/08 12:14:26;;;;;;;1.10;1.10;;;;;;;;;;5044885;28;20017;-84
2022/08/08 12:16:52;;;;;;;2.55;1.30;;;;;;;;;;5061521;28;20104;-82
2022/08/08 12:19:23;;;;;;;1.17;1.08;;;;;;;;;;5024203;28;20052;-84
2022/08/08 12:21:48;;;;;;;1.95;1.65;;;;;;;;;;5043438;28;20022;-84
2022/08/08 12:24:18;;;;;;;2.33;1.15;;;;;;;;;;5043902;28;20401;-83
2022/08/08 12:26:53;;;;;;;1.58;1.48;;;;;;;;;;5044656;28;20084;-83
2022/08/08 12:29:33;;;;;;;1.17;1.10;;;;;;;;;;5027725;28;20026;-84
2022/08/08 12:32:08;;;;;;;1.25;1.15;;;;;;;;;;5045826;28;20021;-84
2022/08/08 12:34:41;;;;;;;1.85;1.30;;;;;;;;;;5046235;28;20076;-82
2022/08/08 12:37:17;;;;;;;1.30;1.20;;;;;;;;;;5021159;28;20108;-82
2022/08/08 12:39:43;;;;;;;3.15;1.40;;;;;;;;;;5037958;28;20037;-82
2022/08/08 12:42:08;;;;;;;1.50;1.13;;;;;;;;;;5036512;28;20030;-82
2022/08/08 12:44:35;;;;;;;3.22;1.30;;;;;;;;;;5037643;28;20464;-84
2022/08/08 12:47:03;;;;;;;1.35;1.25;;;;;;;;;;5035689;28;20487;-83
2022/08/08 12:49:31;;;;;;;1.33;1.23;;;;;;;;;;5037605;28;20029;-83
2022/08/08 12:51:57;;;;;;;3.80;1.10;;;;;;;;;;5037749;28;20029;-83
2022/08/08 12:54:25;;;;;;;1.30;1.20;;;;;;;;;;5037554;28;20025;-83
2022/08/08 12:56:52;;;;;;;1.55;1.17;;;;;;;;;;5036170;28;20229;-84
2022/08/08 12:59:22;;;;;;;1.42;1.23;;;;;;;;;;5036581;28;20160;-84
2022/08/08 13:01:50;;;;;;;1.05;1.00;;;;;;;;;;5036769;28;20060;-85
2022/08/08 13:04:23;;;;;;;1.30;1.20;;;;;;;;;;5019931;28;20357;-83
2022/08/08 13:07:00;;;;;;;4.00;1.20;;;;;;;;;;5019184;28;20025;-83
2022/08/08 13:09:33;;;;;;;1.50;1.40;;;;;;;;;;5037578;28;20026;-83
2022/08/08 13:11:58;;;;;;;1.55;1.20;;;;;;;;;;5049183;28;20028;-82
2022/08/08 13:14:41;;;;;;;2.10;1.02;;;;;;;;;;5035170;28;20459;-82
2022/08/08 13:17:07;;;;;;;1.30;1.20;;;;;;;;;;5036662;28;20100;-83
2022/08/08 13:19:35;;;;;;;2.25;1.30;;;;;;;;;;5037236;28;20083;-82
2022/08/08 13:22:00;;;;;;;0.95;0.77;;;;;;;;;;5036590;28;20331;-82
2022/08/08 13:24:27;;;;;;;1.35;1.20;;;;;;;;;;5019222;28;20018;-83
2022/08/08 13:27:09;;;;;;;1.23;1.05;;;;;;;;;;5036985;28;20184;-83
2022/08/08 13:29:38;;;;;;;1.08;0.93;;;;;;;;;;5035038;28;20423;-83
2022/08/08 13:32:04;;;;;;;1.35;1.10;;;;;;;;;;5036811;28;20361;-82
2022/08/08 13:34:36;;;;;;;0.98;0.98;;;;;;;;;;5036684;28;20561;-83
2022/08/08 13:37:04;;;;;;;2.60;1.00;;;;;;;;;;5036679;28;20060;-82
2022/08/08 13:39:30;;;;;;;1.10;1.00;;;;;;;;;;5036597;28;20040;-82
2022/08/08 13:41:57;;;;;;;4.05;1.25;;;;;;;;;;5019899;28;20022;-82
2022/08/08 13:44:26;;;;;;;1.17;0.90;;;;;;;;;;5035859;28;20387;-82
2022/08/08 13:46:57;;;;;;;1.58;1.20;;;;;;;;;;5016059;28;20108;-82
2022/08/08 13:49:22;;;;;;;3.75;1.05;;;;;;;;;;5036164;28;20028;-84
2022/08/08 13:51:54;;;;;;;1.02;0.93;;;;;;;;;;5042983;28;20053;-83
2022/08/08 13:54:21;;;;;;;1.52;1.05;;;;;;;;;;5041475;28;20102;-83
2022/08/08 13:57:03;;;;;;;2.08;1.13;;;;;;;;;;5017240;28;20030;-82
2022/08/08 13:59:43;;;;;;;1.60;1.00;;;;;;;;;;5038599;28;20032;-82
2022/08/08 14:02:26;;;;;;;1.23;1.10;;;;;;;;;;5023145;28;20526;-83
2022/08/08 14:04:53;;;;;;;2.67;0.95;;;;;;;;;;5023451;28;20277;-83
2022/08/08 14:07:21;;;;;;;1.73;1.08;;;;;;;;;;5039381;28;20040;-85
2022/08/08 14:09:47;;;;;;;1.27;1.17;;;;;;;;;;5040014;28;20494;-82
2022/08/08 14:12:13;;;;;;;1.42;1.20;;;;;;;;;;5053978;28;20037;-82
2022/08/08 14:14:44;;;;;;;1.58;1.05;;;;;;;;;;5043624;28;20036;-83
2022/08/08 14:17:12;;;;;;;0.95;0.95;;;;;;;;;;5038617;28;20055;-84
2022/08/08 14:19:40;;;;;;;2.15;1.10;;;;;;;;;;5041253;28;20033;-83
2022/08/08 14:22:13;;;;;;;1.35;0.90;;;;;;;;;;5042247;28;20029;-82
2022/08/08 14:24:38;;;;;;;1.30;1.20;;;;;;;;;;5056269;28;20021;-83
2022/08/08 14:27:18;;;;;;;2.50;0.95;;;;;;;;;;5064893;28;20070;-82
2022/08/08 14:29:56;;;;;;;4.53;1.10;;;;;;;;;;5049423;28;20033;-82
2022/08/08 14:32:22;;;;;;;1.88;0.80;;;;;;;;;;5027225;28;20510;-82
2022/08/08 14:34:52;;;;;;;6.93;1.30;;;;;;;;;;5044466;28;20025;-85
2022/08/08 14:37:19;;;;;;;2.20;1.10;;;;;;;;;;5045111;28;20029;-81
2022/08/08 14:39:55;;;;;;;3.50;1.17;;;;;;;;;;5042533;28;20435;-81
2022/08/08 14:42:30;;;;;;;0.80;0.80;;;;;;;;;;5028239;28;20078;-83
2022/08/08 14:45:02;;;;;;;2.35;1.10;;;;;;;;;;5045451;28;20085;-84
2022/08/08 14:47:27;;;;;;;2.40;0.93;;;;;;;;;;5044549;28;20021;-84
2022/08/08 14:50:04;;;;;;;1.52;0.90;;;;;;;;;;5037767;28;20043;-84
2022/08/08 14:52:51;;;;;;;5.03;1.33;;;;;;;;;;5058889;28;20113;-83
2022/08/08 14:55:18;;;;;;;1.35;1.05;;;;;;;;;;5059723;28;20029;-83
2022/08/08 14:57:44;;;;;;;3.42;1.10;;;;;;;;;;5058419;28;20156;-83
2022/08/08 15:00:11;;;;;;;0.88;0.80;;;;;;;;;;5059591;28;20016;-83
2022/08/08 15:02:36;;;;;;;2.35;1.08;;;;;;;;;;5058829;28;20041;-83
2022/08/08 15:05:03;;;;;;;2.13;0.80;;;;;;;;;;5060940;28;20006;-84
2022/08/08 15:07:29;;;;;;;0.90;0.90;;;;;;;;;;5059330;28;20018;-84
2022/08/08 15:09:54;;;;;;;0.80;0.80;;;;;;;;;;5058012;28;20044;-84
2022/08/08 15:12:20;;;;;;;1.80;1.08;;;;;;;;;;5047876;28;20414;-83
2022/08/08 15:14:45;;;;;;;1.05;0.90;;;;;;;;;;5069841;28;20025;-82
2022/08/08 15:17:11;;;;;;;1.38;1.00;;;;;;;;;;5068469;28;20028;-83